aviador You're here:

HEMM Decoded Metar

MERSA-MATRUH in EGYPT
Report Time2017-08-19 20:00:00
UTC Time2017-08-19 20:20:51
Flight Rules vfr VFR
Wind080° at 07 kt
W.Decomp.*RWY 06: 6.7 kt HW 2.0 kt RCW
RWY 15: 2.0 kt HW 6.7 kt LCW
W.Rank080° ranks 35
Current wind is below 080° avg. (8.5)
Visibility9999 m
Phenomena:N/A
Clouds:N/A
Expected CloudBase > 2,400 ft AGL from Temp-Dew spread
CeilingNone
Temp27°C (ISA +12)
Dew Point21°C (70% RH)
Heat Index28.9°C
QNH1013 hPa
Density Alt1,831 ft
Elevation98 ft
Report Wrong Elevation
Raw Report
HEMM 192000Z 08007KT CAVOK 27/21 Q1013 NOSIG=

Extra information for HEMM:More info

Metar Taf Metar & Taf Last 4 Metars F.Rules Stats Wind Profile Meteogram Temp Stats Airport Information Weather charts Add Link Nearby VenuesMetar ALERT Operation Metar Decoded Social comments